sensor_id;sensor_type;location;lat;lon;timestamp;temperature;humidity
4010;DHT22;2019;48.200;11.548;2022-09-12T00:01:51;16.20;77.10
4010;DHT22;2019;48.200;11.548;2022-09-12T00:04:17;16.10;76.90
4010;DHT22;2019;48.200;11.548;2022-09-12T00:06:43;16.10;77.00
4010;DHT22;2019;48.200;11.548;2022-09-12T00:09:11;16.10;77.00
4010;DHT22;2019;48.200;11.548;2022-09-12T00:11:43;16.10;77.00
4010;DHT22;2019;48.200;11.548;2022-09-12T00:14:10;16.10;77.00
4010;DHT22;2019;48.200;11.548;2022-09-12T00:16:37;16.10;77.10
4010;DHT22;2019;48.200;11.548;2022-09-12T00:19:04;16.10;77.10
4010;DHT22;2019;48.200;11.548;2022-09-12T00:21:32;16.00;77.10
4010;DHT22;2019;48.200;11.548;2022-09-12T00:23:57;16.00;77.10
4010;DHT22;2019;48.200;11.548;2022-09-12T00:26:23;16.00;77.00
4010;DHT22;2019;48.200;11.548;2022-09-12T00:28:49;16.00;77.00
4010;DHT22;2019;48.200;11.548;2022-09-12T00:31:17;16.00;76.90
4010;DHT22;2019;48.200;11.548;2022-09-12T00:33:43;15.90;76.70
4010;DHT22;2019;48.200;11.548;2022-09-12T00:36:15;15.90;76.70
4010;DHT22;2019;48.200;11.548;2022-09-12T00:38:42;15.90;76.50
4010;DHT22;2019;48.200;11.548;2022-09-12T00:41:19;15.90;76.50
4010;DHT22;2019;48.200;11.548;2022-09-12T00:43:47;15.90;76.40
4010;DHT22;2019;48.200;11.548;2022-09-12T00:46:34;15.90;76.40
4010;DHT22;2019;48.200;11.548;2022-09-12T00:49:16;15.90;76.50
4010;DHT22;2019;48.200;11.548;2022-09-12T00:51:51;15.80;76.40
4010;DHT22;2019;48.200;11.548;2022-09-12T00:54:21;15.80;76.30
4010;DHT22;2019;48.200;11.548;2022-09-12T00:56:49;15.80;76.30
4010;DHT22;2019;48.200;11.548;2022-09-12T00:59:23;15.70;76.00
4010;DHT22;2019;48.200;11.548;2022-09-12T01:01:51;15.80;76.10
4010;DHT22;2019;48.200;11.548;2022-09-12T01:04:20;15.80;76.10
4010;DHT22;2019;48.200;11.548;2022-09-12T01:06:47;15.80;76.10
4010;DHT22;2019;48.200;11.548;2022-09-12T01:09:18;15.70;76.00
4010;DHT22;2019;48.200;11.548;2022-09-12T01:11:45;15.70;76.10
4010;DHT22;2019;48.200;11.548;2022-09-12T01:14:13;15.70;76.20
4010;DHT22;2019;48.200;11.548;2022-09-12T01:16:39;15.70;76.10
4010;DHT22;2019;48.200;11.548;2022-09-12T01:22:10;15.60;76.10
4010;DHT22;2019;48.200;11.548;2022-09-12T01:24:52;15.60;76.00
4010;DHT22;2019;48.200;11.548;2022-09-12T01:39:04;15.50;75.70
4010;DHT22;2019;48.200;11.548;2022-09-12T01:41:50;15.50;75.70
4010;DHT22;2019;48.200;11.548;2022-09-12T01:52:32;15.40;75.70
4010;DHT22;2019;48.200;11.548;2022-09-12T01:55:17;15.40;75.70
4010;DHT22;2019;48.200;11.548;2022-09-12T01:57:54;15.40;75.60
4010;DHT22;2019;48.200;11.548;2022-09-12T02:00:22;15.40;75.60
4010;DHT22;2019;48.200;11.548;2022-09-12T02:05:41;15.40;75.60
4010;DHT22;2019;48.200;11.548;2022-09-12T02:08:17;15.40;75.60
4010;DHT22;2019;48.200;11.548;2022-09-12T02:11:05;15.30;75.50
4010;DHT22;2019;48.200;11.548;2022-09-12T02:16:09;15.30;75.50
4010;DHT22;2019;48.200;11.548;2022-09-12T02:18:42;15.30;75.50
4010;DHT22;2019;48.200;11.548;2022-09-12T02:21:09;15.30;75.50
4010;DHT22;2019;48.200;11.548;2022-09-12T02:23:40;15.30;75.40
4010;DHT22;2019;48.200;11.548;2022-09-12T02:26:12;15.20;75.30
4010;DHT22;2019;48.200;11.548;2022-09-12T02:28:42;15.20;75.30
4010;DHT22;2019;48.200;11.548;2022-09-12T02:31:22;15.20;75.30
4010;DHT22;2019;48.200;11.548;2022-09-12T02:33:51;15.10;75.30
4010;DHT22;2019;48.200;11.548;2022-09-12T02:36:33;15.20;75.30
4010;DHT22;2019;48.200;11.548;2022-09-12T02:39:02;15.20;76.00
4010;DHT22;2019;48.200;11.548;2022-09-12T02:41:27;15.10;75.20
4010;DHT22;2019;48.200;11.548;2022-09-12T02:43:53;15.10;75.20
4010;DHT22;2019;48.200;11.548;2022-09-12T02:46:30;15.10;75.40
4010;DHT22;2019;48.200;11.548;2022-09-12T02:48:56;15.10;75.40
4010;DHT22;2019;48.200;11.548;2022-09-12T02:51:23;15.10;75.40
4010;DHT22;2019;48.200;11.548;2022-09-12T02:53:49;15.10;75.40
4010;DHT22;2019;48.200;11.548;2022-09-12T02:56:39;15.00;75.10
4010;DHT22;2019;48.200;11.548;2022-09-12T02:59:07;15.00;75.10
4010;DHT22;2019;48.200;11.548;2022-09-12T03:07:15;15.00;75.10
4010;DHT22;2019;48.200;11.548;2022-09-12T03:12:38;14.90;74.90
4010;DHT22;2019;48.200;11.548;2022-09-12T03:15:14;14.90;75.00
4010;DHT22;2019;48.200;11.548;2022-09-12T03:23:00;14.90;75.10
4010;DHT22;2019;48.200;11.548;2022-09-12T03:25:33;14.80;74.90
4010;DHT22;2019;48.200;11.548;2022-09-12T03:28:07;14.80;74.90
4010;DHT22;2019;48.200;11.548;2022-09-12T03:30:39;14.80;74.90
4010;DHT22;2019;48.200;11.548;2022-09-12T03:33:05;14.80;74.90
4010;DHT22;2019;48.200;11.548;2022-09-12T03:35:31;14.80;74.90
4010;DHT22;2019;48.200;11.548;2022-09-12T03:37:56;14.70;74.80
4010;DHT22;2019;48.200;11.548;2022-09-12T03:40:22;14.70;74.70
4010;DHT22;2019;48.200;11.548;2022-09-12T03:42:47;14.70;74.70
4010;DHT22;2019;48.200;11.548;2022-09-12T03:45:13;14.70;74.70
4010;DHT22;2019;48.200;11.548;2022-09-12T03:47:40;14.70;74.60
4010;DHT22;2019;48.200;11.548;2022-09-12T03:50:06;14.70;74.70
4010;DHT22;2019;48.200;11.548;2022-09-12T03:52:32;14.70;74.60
4010;DHT22;2019;48.200;11.548;2022-09-12T03:54:57;14.70;74.60
4010;DHT22;2019;48.200;11.548;2022-09-12T03:57:23;14.70;74.50
4010;DHT22;2019;48.200;11.548;2022-09-12T03:59:49;14.60;74.30
4010;DHT22;2019;48.200;11.548;2022-09-12T04:02:15;14.60;74.40
4010;DHT22;2019;48.200;11.548;2022-09-12T04:04:41;14.60;74.40
4010;DHT22;2019;48.200;11.548;2022-09-12T04:07:08;14.60;74.30
4010;DHT22;2019;48.200;11.548;2022-09-12T04:09:34;14.60;74.40
4010;DHT22;2019;48.200;11.548;2022-09-12T04:11:59;14.60;74.30
4010;DHT22;2019;48.200;11.548;2022-09-12T04:14:25;14.50;74.10
4010;DHT22;2019;48.200;11.548;2022-09-12T04:16:51;14.60;74.20
4010;DHT22;2019;48.200;11.548;2022-09-12T04:19:16;14.50;74.10
4010;DHT22;2019;48.200;11.548;2022-09-12T04:21:42;14.50;74.00
4010;DHT22;2019;48.200;11.548;2022-09-12T04:24:08;14.50;74.00
4010;DHT22;2019;48.200;11.548;2022-09-12T04:26:34;14.50;74.00
4010;DHT22;2019;48.200;11.548;2022-09-12T04:28:59;14.50;74.00
4010;DHT22;2019;48.200;11.548;2022-09-12T04:31:25;14.40;74.00
4010;DHT22;2019;48.200;11.548;2022-09-12T04:33:55;14.40;74.00
4010;DHT22;2019;48.200;11.548;2022-09-12T04:36:21;14.40;74.00
4010;DHT22;2019;48.200;11.548;2022-09-12T04:38:48;14.40;73.90
4010;DHT22;2019;48.200;11.548;2022-09-12T04:41:18;14.40;73.80
4010;DHT22;2019;48.200;11.548;2022-09-12T04:43:44;14.40;73.80
4010;DHT22;2019;48.200;11.548;2022-09-12T04:46:15;14.40;73.80
4010;DHT22;2019;48.200;11.548;2022-09-12T04:48:42;14.40;73.80
4010;DHT22;2019;48.200;11.548;2022-09-12T04:51:13;14.40;73.80
4010;DHT22;2019;48.200;11.548;2022-09-12T04:53:39;14.30;73.70
4010;DHT22;2019;48.200;11.548;2022-09-12T04:56:07;14.30;73.60
4010;DHT22;2019;48.200;11.548;2022-09-12T04:58:33;14.30;73.60
4010;DHT22;2019;48.200;11.548;2022-09-12T05:01:04;14.30;73.70
4010;DHT22;2019;48.200;11.548;2022-09-12T05:03:30;14.30;73.80
4010;DHT22;2019;48.200;11.548;2022-09-12T05:05:56;14.30;73.80
4010;DHT22;2019;48.200;11.548;2022-09-12T05:08:22;14.20;73.70
4010;DHT22;2019;48.200;11.548;2022-09-12T05:10:47;14.20;73.70
4010;DHT22;2019;48.200;11.548;2022-09-12T05:13:13;14.30;73.80
4010;DHT22;2019;48.200;11.548;2022-09-12T05:15:38;14.20;73.70
4010;DHT22;2019;48.200;11.548;2022-09-12T05:18:04;14.30;73.80
4010;DHT22;2019;48.200;11.548;2022-09-12T05:20:32;14.30;73.90
4010;DHT22;2019;48.200;11.548;2022-09-12T05:22:58;14.30;73.90
4010;DHT22;2019;48.200;11.548;2022-09-12T05:25:24;14.30;73.90
4010;DHT22;2019;48.200;11.548;2022-09-12T05:27:51;14.30;74.00
4010;DHT22;2019;48.200;11.548;2022-09-12T05:30:17;14.30;74.10
4010;DHT22;2019;48.200;11.548;2022-09-12T05:32:43;14.30;74.20
4010;DHT22;2019;48.200;11.548;2022-09-12T05:35:08;14.30;74.20
4010;DHT22;2019;48.200;11.548;2022-09-12T05:37:35;14.40;74.50
4010;DHT22;2019;48.200;11.548;2022-09-12T05:40:01;14.40;74.50
4010;DHT22;2019;48.200;11.548;2022-09-12T05:42:31;14.40;74.60
4010;DHT22;2019;48.200;11.548;2022-09-12T05:44:57;14.40;74.80
4010;DHT22;2019;48.200;11.548;2022-09-12T05:47:22;14.40;75.00
4010;DHT22;2019;48.200;11.548;2022-09-12T05:49:48;14.40;75.10
4010;DHT22;2019;48.200;11.548;2022-09-12T05:52:16;14.50;75.40
4010;DHT22;2019;48.200;11.548;2022-09-12T05:54:42;14.50;75.60
4010;DHT22;2019;48.200;11.548;2022-09-12T05:57:07;14.50;75.70
4010;DHT22;2019;48.200;11.548;2022-09-12T05:59:33;14.60;76.10
4010;DHT22;2019;48.200;11.548;2022-09-12T06:01:58;14.60;76.40
4010;DHT22;2019;48.200;11.548;2022-09-12T06:04:24;14.70;76.80
4010;DHT22;2019;48.200;11.548;2022-09-12T06:06:50;14.60;76.90
4010;DHT22;2019;48.200;11.548;2022-09-12T06:09:16;14.70;77.20
4010;DHT22;2019;48.200;11.548;2022-09-12T06:11:43;14.70;77.30
4010;DHT22;2019;48.200;11.548;2022-09-12T06:14:11;14.80;78.30
4010;DHT22;2019;48.200;11.548;2022-09-12T06:16:37;14.80;77.60
4010;DHT22;2019;48.200;11.548;2022-09-12T06:19:12;14.80;77.60
4010;DHT22;2019;48.200;11.548;2022-09-12T06:21:38;14.90;77.90
4010;DHT22;2019;48.200;11.548;2022-09-12T06:24:04;14.90;78.20
4010;DHT22;2019;48.200;11.548;2022-09-12T06:26:30;15.00;78.40
4010;DHT22;2019;48.200;11.548;2022-09-12T06:28:56;15.10;78.60
4010;DHT22;2019;48.200;11.548;2022-09-12T06:31:42;15.10;78.70
4010;DHT22;2019;48.200;11.548;2022-09-12T06:34:09;15.20;79.00
4010;DHT22;2019;48.200;11.548;2022-09-12T06:36:38;15.20;78.90
4010;DHT22;2019;48.200;11.548;2022-09-12T06:39:09;15.30;79.10
4010;DHT22;2019;48.200;11.548;2022-09-12T06:41:35;15.30;79.40
4010;DHT22;2019;48.200;11.548;2022-09-12T06:44:02;15.40;79.60
4010;DHT22;2019;48.200;11.548;2022-09-12T06:46:28;15.40;79.60
4010;DHT22;2019;48.200;11.548;2022-09-12T06:48:55;15.50;79.80
4010;DHT22;2019;48.200;11.548;2022-09-12T06:51:21;15.50;80.00
4010;DHT22;2019;48.200;11.548;2022-09-12T06:53:48;15.60;80.20
4010;DHT22;2019;48.200;11.548;2022-09-12T06:56:14;15.70;80.50
4010;DHT22;2019;48.200;11.548;2022-09-12T06:58:41;15.70;80.60
4010;DHT22;2019;48.200;11.548;2022-09-12T07:01:12;15.80;80.90
4010;DHT22;2019;48.200;11.548;2022-09-12T07:03:40;15.90;80.90
4010;DHT22;2019;48.200;11.548;2022-09-12T07:06:07;15.90;80.80
4010;DHT22;2019;48.200;11.548;2022-09-12T07:08:34;16.00;80.80
4010;DHT22;2019;48.200;11.548;2022-09-12T07:11:08;16.10;81.70
4010;DHT22;2019;48.200;11.548;2022-09-12T07:13:34;16.20;81.70
4010;DHT22;2019;48.200;11.548;2022-09-12T07:16:01;16.30;81.80
4010;DHT22;2019;48.200;11.548;2022-09-12T07:18:27;16.40;82.00
4010;DHT22;2019;48.200;11.548;2022-09-12T07:20:54;16.40;82.10
4010;DHT22;2019;48.200;11.548;2022-09-12T07:23:19;16.50;82.30
4010;DHT22;2019;48.200;11.548;2022-09-12T07:25:55;16.60;82.60
4010;DHT22;2019;48.200;11.548;2022-09-12T07:28:22;16.80;82.60
4010;DHT22;2019;48.200;11.548;2022-09-12T07:30:49;16.90;82.60
4010;DHT22;2019;48.200;11.548;2022-09-12T07:33:14;16.90;82.60
4010;DHT22;2019;48.200;11.548;2022-09-12T07:35:40;17.10;82.60
4010;DHT22;2019;48.200;11.548;2022-09-12T07:38:05;17.10;82.30
4010;DHT22;2019;48.200;11.548;2022-09-12T07:40:31;17.20;82.00
4010;DHT22;2019;48.200;11.548;2022-09-12T07:42:57;17.30;81.90
4010;DHT22;2019;48.200;11.548;2022-09-12T07:45:23;17.40;81.70
4010;DHT22;2019;48.200;11.548;2022-09-12T07:47:52;17.50;81.90
4010;DHT22;2019;48.200;11.548;2022-09-12T07:50:18;17.60;81.90
4010;DHT22;2019;48.200;11.548;2022-09-12T07:52:44;17.80;82.40
4010;DHT22;2019;48.200;11.548;2022-09-12T07:55:09;17.90;82.10
4010;DHT22;2019;48.200;11.548;2022-09-12T07:57:35;18.00;81.70
4010;DHT22;2019;48.200;11.548;2022-09-12T08:00:01;18.10;81.60
4010;DHT22;2019;48.200;11.548;2022-09-12T08:02:28;18.20;81.40
4010;DHT22;2019;48.200;11.548;2022-09-12T08:04:53;18.30;81.00
4010;DHT22;2019;48.200;11.548;2022-09-12T08:07:19;18.40;80.90
4010;DHT22;2019;48.200;11.548;2022-09-12T08:09:45;18.50;81.10
4010;DHT22;2019;48.200;11.548;2022-09-12T08:12:10;18.70;80.60
4010;DHT22;2019;48.200;11.548;2022-09-12T08:14:36;18.70;80.10
4010;DHT22;2019;48.200;11.548;2022-09-12T08:17:02;18.80;79.90
4010;DHT22;2019;48.200;11.548;2022-09-12T08:19:27;18.90;79.70
4010;DHT22;2019;48.200;11.548;2022-09-12T08:21:53;19.10;79.30
4010;DHT22;2019;48.200;11.548;2022-09-12T08:24:18;19.10;78.10
4010;DHT22;2019;48.200;11.548;2022-09-12T08:26:44;19.30;77.10
4010;DHT22;2019;48.200;11.548;2022-09-12T08:29:10;19.40;76.60
4010;DHT22;2019;48.200;11.548;2022-09-12T08:31:36;19.40;76.20
4010;DHT22;2019;48.200;11.548;2022-09-12T08:34:03;19.50;76.00
4010;DHT22;2019;48.200;11.548;2022-09-12T08:36:30;19.60;75.20
4010;DHT22;2019;48.200;11.548;2022-09-12T08:39:05;19.70;74.90
4010;DHT22;2019;48.200;11.548;2022-09-12T08:41:45;19.90;73.20
4010;DHT22;2019;48.200;11.548;2022-09-12T08:44:50;20.00;72.50
4010;DHT22;2019;48.200;11.548;2022-09-12T08:47:29;20.10;72.40
4010;DHT22;2019;48.200;11.548;2022-09-12T08:55:44;20.30;70.60
4010;DHT22;2019;48.200;11.548;2022-09-12T08:58:14;20.40;70.90
4010;DHT22;2019;48.200;11.548;2022-09-12T09:00:58;20.40;71.80
4010;DHT22;2019;48.200;11.548;2022-09-12T09:08:50;20.70;70.50
4010;DHT22;2019;48.200;11.548;2022-09-12T09:17:01;21.10;68.40
4010;DHT22;2019;48.200;11.548;2022-09-12T09:19:30;21.10;67.30
4010;DHT22;2019;48.200;11.548;2022-09-12T09:22:07;21.20;67.50
4010;DHT22;2019;48.200;11.548;2022-09-12T09:24:44;21.40;68.60
4010;DHT22;2019;48.200;11.548;2022-09-12T09:27:20;21.40;66.90
4010;DHT22;2019;48.200;11.548;2022-09-12T09:29:51;21.50;67.60
4010;DHT22;2019;48.200;11.548;2022-09-12T09:32:25;21.60;67.10
4010;DHT22;2019;48.200;11.548;2022-09-12T09:34:51;21.70;66.80
4010;DHT22;2019;48.200;11.548;2022-09-12T09:45:24;22.20;65.60
4010;DHT22;2019;48.200;11.548;2022-09-12T09:47:56;22.30;66.80
4010;DHT22;2019;48.200;11.548;2022-09-12T09:50:22;22.50;65.70
4010;DHT22;2019;48.200;11.548;2022-09-12T09:52:50;22.50;65.60
4010;DHT22;2019;48.200;11.548;2022-09-12T09:55:24;22.60;65.20
4010;DHT22;2019;48.200;11.548;2022-09-12T09:57:52;22.60;65.10
4010;DHT22;2019;48.200;11.548;2022-09-12T10:00:32;22.80;64.20
4010;DHT22;2019;48.200;11.548;2022-09-12T10:03:00;22.90;64.30
4010;DHT22;2019;48.200;11.548;2022-09-12T10:05:28;22.90;63.20
4010;DHT22;2019;48.200;11.548;2022-09-12T10:07:54;23.00;61.70
4010;DHT22;2019;48.200;11.548;2022-09-12T10:10:19;23.00;60.20
4010;DHT22;2019;48.200;11.548;2022-09-12T10:12:48;23.10;60.80
4010;DHT22;2019;48.200;11.548;2022-09-12T10:15:22;23.20;60.60
4010;DHT22;2019;48.200;11.548;2022-09-12T10:17:50;23.30;59.70
4010;DHT22;2019;48.200;11.548;2022-09-12T10:20:42;23.30;59.20
4010;DHT22;2019;48.200;11.548;2022-09-12T10:25:47;23.60;58.80
4010;DHT22;2019;48.200;11.548;2022-09-12T10:28:24;23.70;58.40
4010;DHT22;2019;48.200;11.548;2022-09-12T10:30:55;23.70;58.70
4010;DHT22;2019;48.200;11.548;2022-09-12T10:33:23;23.90;59.40
4010;DHT22;2019;48.200;11.548;2022-09-12T10:35:51;24.00;58.80
4010;DHT22;2019;48.200;11.548;2022-09-12T10:38:36;24.00;58.70
4010;DHT22;2019;48.200;11.548;2022-09-12T10:41:05;24.10;58.60
4010;DHT22;2019;48.200;11.548;2022-09-12T10:43:38;24.20;59.10
4010;DHT22;2019;48.200;11.548;2022-09-12T10:48:46;24.40;58.90
4010;DHT22;2019;48.200;11.548;2022-09-12T10:53:52;24.60;58.10
4010;DHT22;2019;48.200;11.548;2022-09-12T10:56:19;24.70;58.80
4010;DHT22;2019;48.200;11.548;2022-09-12T11:04:17;25.00;57.90
4010;DHT22;2019;48.200;11.548;2022-09-12T11:26:02;25.50;55.30
4010;DHT22;2019;48.200;11.548;2022-09-12T11:33:57;25.60;53.90
4010;DHT22;2019;48.200;11.548;2022-09-12T11:36:34;25.60;54.90
4010;DHT22;2019;48.200;11.548;2022-09-12T11:39:20;25.70;54.70
4010;DHT22;2019;48.200;11.548;2022-09-12T11:41:51;25.80;54.90
4010;DHT22;2019;48.200;11.548;2022-09-12T11:44:30;25.90;54.20
4010;DHT22;2019;48.200;11.548;2022-09-12T11:47:00;25.90;54.10
4010;DHT22;2019;48.200;11.548;2022-09-12T11:49:49;26.10;54.40
4010;DHT22;2019;48.200;11.548;2022-09-12T11:52:19;26.20;52.50
4010;DHT22;2019;48.200;11.548;2022-09-12T11:57:51;26.50;51.50
4010;DHT22;2019;48.200;11.548;2022-09-12T12:00:22;26.70;51.50
4010;DHT22;2019;48.200;11.548;2022-09-12T12:02:56;26.80;52.00
4010;DHT22;2019;48.200;11.548;2022-09-12T12:05:48;27.00;51.50
4010;DHT22;2019;48.200;11.548;2022-09-12T12:08:17;27.00;50.50
4010;DHT22;2019;48.200;11.548;2022-09-12T12:10:56;27.10;50.10
4010;DHT22;2019;48.200;11.548;2022-09-12T12:13:32;27.10;49.60
4010;DHT22;2019;48.200;11.548;2022-09-12T12:16:07;27.20;48.90
4010;DHT22;2019;48.200;11.548;2022-09-12T12:18:37;27.20;49.40
4010;DHT22;2019;48.200;11.548;2022-09-12T12:32:18;27.80;47.60
4010;DHT22;2019;48.200;11.548;2022-09-12T12:34:45;27.90;46.50
4010;DHT22;2019;48.200;11.548;2022-09-12T12:47:39;28.20;46.00
4010;DHT22;2019;48.200;11.548;2022-09-12T12:50:19;28.20;45.40
4010;DHT22;2019;48.200;11.548;2022-09-12T12:52:59;28.30;44.90
4010;DHT22;2019;48.200;11.548;2022-09-12T12:55:35;28.10;44.80
4010;DHT22;2019;48.200;11.548;2022-09-12T12:58:04;28.10;44.80
4010;DHT22;2019;48.200;11.548;2022-09-12T13:05:28;28.20;45.20
4010;DHT22;2019;48.200;11.548;2022-09-12T13:08:05;28.30;45.00
4010;DHT22;2019;48.200;11.548;2022-09-12T13:10:32;28.30;45.00
4010;DHT22;2019;48.200;11.548;2022-09-12T13:13:02;28.40;44.80
4010;DHT22;2019;48.200;11.548;2022-09-12T13:18:03;28.40;44.00
4010;DHT22;2019;48.200;11.548;2022-09-12T13:20:35;28.40;44.30
4010;DHT22;2019;48.200;11.548;2022-09-12T13:23:02;28.40;43.90
4010;DHT22;2019;48.200;11.548;2022-09-12T13:25:32;28.40;43.00
4010;DHT22;2019;48.200;11.548;2022-09-12T13:30:41;28.30;43.10
4010;DHT22;2019;48.200;11.548;2022-09-12T13:33:40;28.30;43.30
4010;DHT22;2019;48.200;11.548;2022-09-12T13:39:20;28.40;43.20
4010;DHT22;2019;48.200;11.548;2022-09-12T13:42:15;28.40;43.60
4010;DHT22;2019;48.200;11.548;2022-09-12T13:44:47;28.40;43.80
4010;DHT22;2019;48.200;11.548;2022-09-12T13:49:55;28.40;44.20
4010;DHT22;2019;48.200;11.548;2022-09-12T13:52:25;28.50;43.60
4010;DHT22;2019;48.200;11.548;2022-09-12T13:54:55;28.50;43.10
4010;DHT22;2019;48.200;11.548;2022-09-12T13:57:31;28.50;42.20
4010;DHT22;2019;48.200;11.548;2022-09-12T13:59:58;28.60;41.60
4010;DHT22;2019;48.200;11.548;2022-09-12T14:02:27;28.70;41.30
4010;DHT22;2019;48.200;11.548;2022-09-12T14:04:54;28.60;41.70
4010;DHT22;2019;48.200;11.548;2022-09-12T14:07:54;28.60;41.90
4010;DHT22;2019;48.200;11.548;2022-09-12T14:10:41;28.60;42.10
4010;DHT22;2019;48.200;11.548;2022-09-12T14:13:23;28.80;42.20
4010;DHT22;2019;48.200;11.548;2022-09-12T14:15:51;28.80;42.10
4010;DHT22;2019;48.200;11.548;2022-09-12T14:18:28;28.80;42.50
4010;DHT22;2019;48.200;11.548;2022-09-12T14:21:08;28.80;43.40
4010;DHT22;2019;48.200;11.548;2022-09-12T14:23:40;28.80;42.50
4010;DHT22;2019;48.200;11.548;2022-09-12T14:26:10;28.80;41.80
4010;DHT22;2019;48.200;11.548;2022-09-12T14:28:40;28.80;40.50
4010;DHT22;2019;48.200;11.548;2022-09-12T14:38:54;28.50;41.50
4010;DHT22;2019;48.200;11.548;2022-09-12T14:41:32;28.50;41.70
4010;DHT22;2019;48.200;11.548;2022-09-12T14:44:06;28.50;41.70
4010;DHT22;2019;48.200;11.548;2022-09-12T14:46:40;28.50;42.30
4010;DHT22;2019;48.200;11.548;2022-09-12T14:51:55;28.40;42.10
4010;DHT22;2019;48.200;11.548;2022-09-12T14:56:58;28.30;42.50
4010;DHT22;2019;48.200;11.548;2022-09-12T15:02:20;28.10;42.10
4010;DHT22;2019;48.200;11.548;2022-09-12T15:07:58;27.90;42.30
4010;DHT22;2019;48.200;11.548;2022-09-12T15:10:31;27.90;42.10
4010;DHT22;2019;48.200;11.548;2022-09-12T15:15:31;27.80;42.60
4010;DHT22;2019;48.200;11.548;2022-09-12T15:17:57;27.80;43.20
4010;DHT22;2019;48.200;11.548;2022-09-12T15:20:23;27.80;43.10
4010;DHT22;2019;48.200;11.548;2022-09-12T15:22:49;27.80;43.00
4010;DHT22;2019;48.200;11.548;2022-09-12T15:25:15;27.80;42.50
4010;DHT22;2019;48.200;11.548;2022-09-12T15:27:41;27.80;42.20
4010;DHT22;2019;48.200;11.548;2022-09-12T15:30:07;27.70;42.20
4010;DHT22;2019;48.200;11.548;2022-09-12T15:32:35;27.70;42.40
4010;DHT22;2019;48.200;11.548;2022-09-12T15:35:01;27.70;42.80
4010;DHT22;2019;48.200;11.548;2022-09-12T15:37:27;27.70;42.80
4010;DHT22;2019;48.200;11.548;2022-09-12T15:39:53;27.70;43.60
4010;DHT22;2019;48.200;11.548;2022-09-12T15:42:28;27.70;43.50
4010;DHT22;2019;48.200;11.548;2022-09-12T15:44:54;27.70;43.60
4010;DHT22;2019;48.200;11.548;2022-09-12T15:47:19;27.60;43.40
4010;DHT22;2019;48.200;11.548;2022-09-12T15:49:46;27.60;43.90
4010;DHT22;2019;48.200;11.548;2022-09-12T15:52:14;27.60;43.90
4010;DHT22;2019;48.200;11.548;2022-09-12T15:54:41;27.50;43.90
4010;DHT22;2019;48.200;11.548;2022-09-12T15:57:07;27.50;44.30
4010;DHT22;2019;48.200;11.548;2022-09-12T15:59:32;27.50;43.90
4010;DHT22;2019;48.200;11.548;2022-09-12T16:01:58;27.50;43.70
4010;DHT22;2019;48.200;11.548;2022-09-12T16:04:26;27.40;43.40
4010;DHT22;2019;48.200;11.548;2022-09-12T16:06:53;27.40;43.30
4010;DHT22;2019;48.200;11.548;2022-09-12T16:09:19;27.30;43.30
4010;DHT22;2019;48.200;11.548;2022-09-12T16:11:45;27.20;42.90
4010;DHT22;2019;48.200;11.548;2022-09-12T16:14:16;27.20;43.00
4010;DHT22;2019;48.200;11.548;2022-09-12T16:16:42;27.10;42.90
4010;DHT22;2019;48.200;11.548;2022-09-12T16:19:09;27.00;42.60
4010;DHT22;2019;48.200;11.548;2022-09-12T16:21:36;27.00;43.00
4010;DHT22;2019;48.200;11.548;2022-09-12T16:24:03;26.80;43.20
4010;DHT22;2019;48.200;11.548;2022-09-12T16:26:29;26.80;43.20
4010;DHT22;2019;48.200;11.548;2022-09-12T16:28:58;26.70;43.20
4010;DHT22;2019;48.200;11.548;2022-09-12T16:31:24;26.60;43.40
4010;DHT22;2019;48.200;11.548;2022-09-12T16:33:50;26.50;43.90
4010;DHT22;2019;48.200;11.548;2022-09-12T16:36:18;26.40;44.20
4010;DHT22;2019;48.200;11.548;2022-09-12T16:38:51;26.30;44.30
4010;DHT22;2019;48.200;11.548;2022-09-12T16:41:19;26.20;44.50
4010;DHT22;2019;48.200;11.548;2022-09-12T16:43:45;26.10;44.70
4010;DHT22;2019;48.200;11.548;2022-09-12T16:46:16;26.00;45.10
4010;DHT22;2019;48.200;11.548;2022-09-12T16:48:51;25.90;45.30
4010;DHT22;2019;48.200;11.548;2022-09-12T16:51:19;25.80;45.70
4010;DHT22;2019;48.200;11.548;2022-09-12T16:53:46;25.70;46.00
4010;DHT22;2019;48.200;11.548;2022-09-12T16:56:11;25.60;46.40
4010;DHT22;2019;48.200;11.548;2022-09-12T16:58:39;25.50;46.80
4010;DHT22;2019;48.200;11.548;2022-09-12T17:01:17;25.40;47.00
4010;DHT22;2019;48.200;11.548;2022-09-12T17:03:43;25.30;47.50
4010;DHT22;2019;48.200;11.548;2022-09-12T17:06:17;25.20;47.80
4010;DHT22;2019;48.200;11.548;2022-09-12T17:08:44;25.10;48.30
4010;DHT22;2019;48.200;11.548;2022-09-12T17:11:14;25.00;48.50
4010;DHT22;2019;48.200;11.548;2022-09-12T17:13:41;24.90;48.80
4010;DHT22;2019;48.200;11.548;2022-09-12T17:16:10;24.80;48.90
4010;DHT22;2019;48.200;11.548;2022-09-12T17:18:37;24.70;49.20
4010;DHT22;2019;48.200;11.548;2022-09-12T17:21:04;24.70;49.50
4010;DHT22;2019;48.200;11.548;2022-09-12T17:23:30;24.60;49.70
4010;DHT22;2019;48.200;11.548;2022-09-12T17:25:55;24.50;49.90
4010;DHT22;2019;48.200;11.548;2022-09-12T17:28:21;24.40;50.20
4010;DHT22;2019;48.200;11.548;2022-09-12T17:30:54;24.40;50.40
4010;DHT22;2019;48.200;11.548;2022-09-12T17:33:20;24.30;50.60
4010;DHT22;2019;48.200;11.548;2022-09-12T17:35:46;24.20;50.70
4010;DHT22;2019;48.200;11.548;2022-09-12T17:38:11;24.10;50.80
4010;DHT22;2019;48.200;11.548;2022-09-12T17:40:37;24.10;51.10
4010;DHT22;2019;48.200;11.548;2022-09-12T17:43:02;24.00;51.30
4010;DHT22;2019;48.200;11.548;2022-09-12T17:45:28;23.90;51.50
4010;DHT22;2019;48.200;11.548;2022-09-12T17:47:54;23.90;51.80
4010;DHT22;2019;48.200;11.548;2022-09-12T17:50:20;23.80;51.90
4010;DHT22;2019;48.200;11.548;2022-09-12T17:52:46;23.70;52.10
4010;DHT22;2019;48.200;11.548;2022-09-12T17:55:12;23.70;52.50
4010;DHT22;2019;48.200;11.548;2022-09-12T17:57:40;23.60;52.50
4010;DHT22;2019;48.200;11.548;2022-09-12T18:00:06;23.60;52.80
4010;DHT22;2019;48.200;11.548;2022-09-12T18:02:33;23.50;52.80
4010;DHT22;2019;48.200;11.548;2022-09-12T18:04:59;23.40;53.60
4010;DHT22;2019;48.200;11.548;2022-09-12T18:07:26;23.30;53.10
4010;DHT22;2019;48.200;11.548;2022-09-12T18:09:51;23.30;53.40
4010;DHT22;2019;48.200;11.548;2022-09-12T18:12:18;23.20;53.70
4010;DHT22;2019;48.200;11.548;2022-09-12T18:14:44;23.10;53.80
4010;DHT22;2019;48.200;11.548;2022-09-12T18:17:10;23.00;54.00
4010;DHT22;2019;48.200;11.548;2022-09-12T18:19:36;23.00;54.20
4010;DHT22;2019;48.200;11.548;2022-09-12T18:22:03;22.90;54.40
4010;DHT22;2019;48.200;11.548;2022-09-12T18:24:30;22.80;54.60
4010;DHT22;2019;48.200;11.548;2022-09-12T18:26:56;22.80;55.00
4010;DHT22;2019;48.200;11.548;2022-09-12T18:29:22;22.70;55.10
4010;DHT22;2019;48.200;11.548;2022-09-12T18:31:49;22.60;55.30
4010;DHT22;2019;48.200;11.548;2022-09-12T18:34:15;22.50;55.40
4010;DHT22;2019;48.200;11.548;2022-09-12T18:36:43;22.50;55.70
4010;DHT22;2019;48.200;11.548;2022-09-12T18:39:10;22.40;55.80
4010;DHT22;2019;48.200;11.548;2022-09-12T18:41:36;22.40;56.10
4010;DHT22;2019;48.200;11.548;2022-09-12T18:44:02;22.30;56.20
4010;DHT22;2019;48.200;11.548;2022-09-12T18:46:29;22.30;56.30